ICE4BE BIKF-ENBR
Flight info
| Callsign | ICE4BE |
|---|---|
| Flight time | N/A |
| Altitude | 39000 |
| Route | OSKUM3A OSKUM DCT 63N010W DCT GUNPA/N0460F390 DCT MODNI |
| Aircraft | B38M/M-SDE1FGHILORVWXY/HB1 |
Departure
| Time | 2026-05-06 15:12 |
|---|---|
| Airport | Keflavik International Airport (BIKF) |
Arrival
| Time | N/A |
|---|---|
| Airport | Bergen Airport, Flesland (ENBR) |
| Time | Latitude | Longitude | Altitude | Speed | Heading |
|---|---|---|---|---|---|
| 2026-05-06 14:48 | 63.99372 | -22.62547 | 145 ft | 0 kts | 116° |
| 2026-05-06 15:01 | 63.99374 | -22.62557 | 145 ft | 3 kts | 116° |
| 2026-05-06 15:01 | 63.99386 | -22.62612 | 148 ft | 4 kts | 116° |
| 2026-05-06 15:01 | 63.99398 | -22.62663 | 145 ft | 4 kts | 128° |
| 2026-05-06 15:02 | 63.99416 | -22.62686 | 145 ft | 4 kts | 191° |
| 2026-05-06 15:02 | 63.99435 | -22.62670 | 145 ft | 0 kts | 204° |
| 2026-05-06 15:02 | 63.99417 | -22.62689 | 145 ft | 4 kts | 204° |
| 2026-05-06 15:02 | 63.99411 | -22.62695 | 145 ft | 0 kts | 204° |
| 2026-05-06 15:04 | 63.99410 | -22.62697 | 145 ft | 1 kts | 204° |
| 2026-05-06 15:05 | 63.99369 | -22.62738 | 145 ft | 10 kts | 200° |
| 2026-05-06 15:05 | 63.99276 | -22.62741 | 145 ft | 19 kts | 166° |
| 2026-05-06 15:05 | 63.99179 | -22.62628 | 145 ft | 14 kts | 136° |
| 2026-05-06 15:05 | 63.99173 | -22.62447 | 145 ft | 17 kts | 89° |
| 2026-05-06 15:06 | 63.99173 | -22.62115 | 145 ft | 25 kts | 90° |
| 2026-05-06 15:06 | 63.99174 | -22.61711 | 149 ft | 25 kts | 88° |
| 2026-05-06 15:06 | 63.99173 | -22.61330 | 158 ft | 23 kts | 90° |
| 2026-05-06 15:06 | 63.99129 | -22.61122 | 163 ft | 13 kts | 176° |
| 2026-05-06 15:07 | 63.99016 | -22.61124 | 166 ft | 21 kts | 180° |
| 2026-05-06 15:07 | 63.98857 | -22.61124 | 166 ft | 24 kts | 180° |
| 2026-05-06 15:07 | 63.98689 | -22.61124 | 165 ft | 20 kts | 180° |
| 2026-05-06 15:07 | 63.98613 | -22.61125 | 166 ft | 4 kts | 180° |
| 2026-05-06 15:08 | 63.98544 | -22.61125 | 168 ft | 17 kts | 180° |
| 2026-05-06 15:08 | 63.98396 | -22.61126 | 161 ft | 24 kts | 180° |
| 2026-05-06 15:08 | 63.98224 | -22.61126 | 163 ft | 27 kts | 180° |
| 2026-05-06 15:08 | 63.98123 | -22.60960 | 169 ft | 12 kts | 138° |
| 2026-05-06 15:09 | 63.98020 | -22.60940 | 171 ft | 21 kts | 180° |
| 2026-05-06 15:09 | 63.97809 | -22.60940 | 172 ft | 35 kts | 180° |
| 2026-05-06 15:09 | 63.97593 | -22.60940 | 170 ft | 31 kts | 180° |
| 2026-05-06 15:09 | 63.97375 | -22.60941 | 166 ft | 30 kts | 180° |
| 2026-05-06 15:10 | 63.97159 | -22.60940 | 159 ft | 29 kts | 180° |
| 2026-05-06 15:10 | 63.96948 | -22.60940 | 152 ft | 30 kts | 180° |
| 2026-05-06 15:10 | 63.96753 | -22.60941 | 144 ft | 27 kts | 180° |
| 2026-05-06 15:10 | 63.96553 | -22.60941 | 138 ft | 30 kts | 180° |
| 2026-05-06 15:11 | 63.96460 | -22.60772 | 141 ft | 17 kts | 90° |
| 2026-05-06 15:11 | 63.96490 | -22.60553 | 148 ft | 14 kts | 32° |
| 2026-05-06 15:11 | 63.96566 | -22.60542 | 150 ft | 0 kts | 359° |
| 2026-05-06 15:12 | 63.96691 | -22.60542 | 156 ft | 57 kts | 0° |
| 2026-05-06 15:12 | 63.97378 | -22.60539 | 181 ft | 139 kts | 2° |
| 2026-05-06 15:12 | 63.98458 | -22.60530 | 838 ft | 166 kts | 2° |
| 2026-05-06 15:13 | 63.99663 | -22.60521 | 1995 ft | 181 kts | 4° |
| 2026-05-06 15:13 | 64.01027 | -22.60519 | 3014 ft | 212 kts | 4° |
| 2026-05-06 15:13 | 64.02583 | -22.60522 | 3980 ft | 236 kts | 2° |
| 2026-05-06 15:13 | 64.04255 | -22.60506 | 4992 ft | 241 kts | 5° |
| 2026-05-06 15:14 | 64.05829 | -22.59385 | 5864 ft | 238 kts | 35° |
| 2026-05-06 15:14 | 64.06924 | -22.56572 | 6795 ft | 243 kts | 63° |
| 2026-05-06 15:14 | 64.07262 | -22.52755 | 7768 ft | 254 kts | 91° |
| 2026-05-06 15:14 | 64.06944 | -22.48733 | 8841 ft | 260 kts | 96° |
| 2026-05-06 15:15 | 64.06700 | -22.44600 | 9911 ft | 265 kts | 94° |
| 2026-05-06 15:15 | 64.06357 | -22.40435 | 10893 ft | 273 kts | 109° |
| 2026-05-06 15:15 | 64.05337 | -22.36706 | 11906 ft | 279 kts | 120° |
| 2026-05-06 15:15 | 64.04297 | -22.32965 | 12974 ft | 281 kts | 117° |
| 2026-05-06 15:16 | 64.03269 | -22.29049 | 13851 ft | 295 kts | 117° |
| 2026-05-06 15:16 | 64.02208 | -22.24923 | 14615 ft | 308 kts | 116° |
| 2026-05-06 15:16 | 64.01110 | -22.20604 | 15380 ft | 321 kts | 116° |
| 2026-05-06 15:16 | 63.99977 | -22.16117 | 16146 ft | 332 kts | 116° |
| 2026-05-06 15:17 | 63.98816 | -22.11500 | 16934 ft | 342 kts | 116° |
| 2026-05-06 15:17 | 63.97616 | -22.06729 | 17710 ft | 350 kts | 116° |
| 2026-05-06 15:17 | 63.96398 | -22.01890 | 18532 ft | 358 kts | 116° |
| 2026-05-06 15:17 | 63.95148 | -21.96936 | 19268 ft | 364 kts | 116° |
| 2026-05-06 15:18 | 63.93875 | -21.91897 | 20036 ft | 370 kts | 116° |
| 2026-05-06 15:18 | 63.92582 | -21.86793 | 20814 ft | 374 kts | 116° |
| 2026-05-06 15:18 | 63.91276 | -21.81647 | 21581 ft | 378 kts | 116° |
| 2026-05-06 15:18 | 63.89957 | -21.76465 | 22391 ft | 380 kts | 116° |
| 2026-05-06 15:19 | 63.88628 | -21.71254 | 23217 ft | 382 kts | 116° |
| 2026-05-06 15:19 | 63.87320 | -21.66142 | 24010 ft | 382 kts | 116° |
| 2026-05-06 15:19 | 63.85967 | -21.60863 | 24715 ft | 382 kts | 116° |
| 2026-05-06 15:19 | 63.84652 | -21.55746 | 25431 ft | 381 kts | 116° |
| 2026-05-06 15:20 | 63.83302 | -21.50504 | 26181 ft | 379 kts | 116° |
| 2026-05-06 15:20 | 63.81996 | -21.45440 | 26866 ft | 379 kts | 116° |
| 2026-05-06 15:20 | 63.80783 | -21.40746 | 27050 ft | 390 kts | 117° |
| 2026-05-06 15:20 | 63.79390 | -21.35372 | 27334 ft | 400 kts | 117° |
| 2026-05-06 15:21 | 63.77965 | -21.29892 | 27702 ft | 407 kts | 117° |
| 2026-05-06 15:21 | 63.76590 | -21.24288 | 28168 ft | 408 kts | 110° |
| 2026-05-06 15:21 | 63.75890 | -21.18141 | 28675 ft | 405 kts | 93° |
| 2026-05-06 15:21 | 63.75575 | -21.11838 | 29078 ft | 411 kts | 95° |
| 2026-05-06 15:22 | 63.75173 | -21.05414 | 29531 ft | 416 kts | 96° |
| 2026-05-06 15:22 | 63.74767 | -20.98956 | 29793 ft | 422 kts | 96° |
| 2026-05-06 15:22 | 63.74353 | -20.92390 | 30156 ft | 425 kts | 96° |
| 2026-05-06 15:22 | 63.73941 | -20.85915 | 30445 ft | 428 kts | 96° |
| 2026-05-06 15:23 | 63.73530 | -20.79494 | 30713 ft | 432 kts | 96° |